Time;durP1;ratioP1;P1;durP2;ratioP2;P2;SDS_P1;SDS_P2;PMS_P1;PMS_P2;Temp;Humidity;BMP_temperature;BMP_pressure;BME280_temperature;BME280_humidity;BME280_pressure;Samples;Min_cycle;Max_cycle;Signal;HPM_P1;HPM_P2
2022/01/11 00:00:25;;;;;;;6.40;4.10;;;;;;;;;;6236326;23;20023;-76
2022/01/11 00:02:54;;;;;;;4.45;3.08;;;;;;;;;;6210824;23;20067;-76
2022/01/11 00:05:59;;;;;;;4.97;2.80;;;;;;;;;;6236402;23;20013;-76
2022/01/11 00:08:14;;;;;;;4.18;2.75;;;;;;;;;;6232538;23;20074;-76
2022/01/11 00:13:14;;;;;;;6.10;4.28;;;;;;;;;;6239395;23;20449;-76
2022/01/11 00:15:40;;;;;;;5.63;3.50;;;;;;;;;;6211887;23;20039;-78
2022/01/11 00:18:07;;;;;;;4.57;2.72;;;;;;;;;;6238202;23;20012;-76
2022/01/11 00:20:35;;;;;;;5.38;3.08;;;;;;;;;;6210962;23;20062;-76
2022/01/11 00:25:29;;;;;;;7.05;3.88;;;;;;;;;;6238717;23;20012;-76
2022/01/11 00:27:56;;;;;;;5.55;3.10;;;;;;;;;;6238290;23;20028;-75
2022/01/11 00:30:24;;;;;;;5.78;3.08;;;;;;;;;;6236673;23;20020;-76
2022/01/11 00:32:54;;;;;;;4.72;2.45;;;;;;;;;;6238496;23;20016;-77
2022/01/11 00:35:27;;;;;;;4.65;2.85;;;;;;;;;;6237208;23;20066;-77
2022/01/11 00:37:54;;;;;;;4.30;3.00;;;;;;;;;;6238595;23;20015;-76
2022/01/11 00:40:21;;;;;;;5.25;2.92;;;;;;;;;;6236904;23;20017;-76
2022/01/11 00:42:48;;;;;;;3.03;1.90;;;;;;;;;;6239845;23;20074;-76
2022/01/11 00:45:14;;;;;;;4.47;2.63;;;;;;;;;;6238121;23;20101;-77
2022/01/11 00:47:42;;;;;;;5.20;2.50;;;;;;;;;;6238424;23;20029;-78
2022/01/11 00:50:08;;;;;;;5.65;2.97;;;;;;;;;;6239077;23;20086;-75
2022/01/11 00:52:35;;;;;;;5.38;3.35;;;;;;;;;;6236612;23;20059;-78
2022/01/11 00:55:01;;;;;;;5.18;2.30;;;;;;;;;;6238554;23;20020;-76
2022/01/11 00:57:28;;;;;;;6.28;3.05;;;;;;;;;;6238026;23;20023;-76
2022/01/11 01:00:08;;;;;;;4.22;2.13;;;;;;;;;;6239266;22;20026;-79
2022/01/11 01:02:41;;;;;;;4.65;2.92;;;;;;;;;;6237368;23;20012;-77
2022/01/11 01:05:08;;;;;;;4.72;2.72;;;;;;;;;;6238523;23;20020;-77
2022/01/11 01:07:34;;;;;;;5.30;3.10;;;;;;;;;;6237719;23;20024;-76
2022/01/11 01:10:05;;;;;;;3.60;2.10;;;;;;;;;;6237675;23;20456;-75
2022/01/11 01:12:31;;;;;;;4.60;2.53;;;;;;;;;;6237039;23;20019;-77
2022/01/11 01:14:58;;;;;;;6.57;3.22;;;;;;;;;;6199615;23;20070;-76
2022/01/11 01:17:24;;;;;;;4.75;2.33;;;;;;;;;;6235649;23;20017;-77
2022/01/11 01:19:50;;;;;;;4.85;2.78;;;;;;;;;;6238600;23;20019;-76
2022/01/11 01:22:17;;;;;;;4.03;2.50;;;;;;;;;;6236314;23;20575;-76
2022/01/11 01:24:43;;;;;;;4.45;2.53;;;;;;;;;;6238010;23;20011;-75
2022/01/11 01:27:10;;;;;;;4.05;2.80;;;;;;;;;;6212145;23;20020;-75
2022/01/11 01:29:38;;;;;;;5.22;2.50;;;;;;;;;;6236724;23;20341;-76
2022/01/11 01:32:05;;;;;;;4.88;2.67;;;;;;;;;;6237439;23;20016;-77
2022/01/11 01:34:31;;;;;;;6.03;2.83;;;;;;;;;;6236483;23;20020;-74
2022/01/11 01:36:57;;;;;;;3.78;2.33;;;;;;;;;;6237394;23;20016;-75
2022/01/11 01:39:25;;;;;;;3.97;2.25;;;;;;;;;;6238140;23;20606;-76
2022/01/11 01:41:52;;;;;;;5.13;2.78;;;;;;;;;;6237682;23;20482;-76
2022/01/11 01:44:18;;;;;;;4.32;2.65;;;;;;;;;;6237077;23;20019;-77
2022/01/11 01:46:45;;;;;;;4.63;2.42;;;;;;;;;;6237951;23;20391;-75
2022/01/11 01:49:17;;;;;;;4.50;2.72;;;;;;;;;;6238954;23;20058;-78
2022/01/11 01:51:44;;;;;;;3.85;2.33;;;;;;;;;;6236300;23;21308;-77
2022/01/11 01:54:12;;;;;;;3.60;2.00;;;;;;;;;;6238202;23;20016;-76
2022/01/11 01:56:38;;;;;;;3.28;2.08;;;;;;;;;;6235881;23;22442;-78
2022/01/11 01:59:05;;;;;;;3.40;1.75;;;;;;;;;;6237402;22;20023;-77
2022/01/11 02:01:35;;;;;;;4.28;2.50;;;;;;;;;;6236156;23;20078;-75
2022/01/11 02:04:01;;;;;;;4.45;2.30;;;;;;;;;;6237602;23;20019;-74
2022/01/11 02:06:28;;;;;;;4.10;2.60;;;;;;;;;;6237204;23;20038;-75
2022/01/11 02:08:54;;;;;;;3.05;2.00;;;;;;;;;;6238360;23;20012;-77
2022/01/11 02:11:22;;;;;;;3.72;2.33;;;;;;;;;;6236661;23;20027;-76
2022/01/11 02:13:49;;;;;;;5.03;2.28;;;;;;;;;;6237486;23;20051;-76
2022/01/11 02:16:17;;;;;;;3.63;2.22;;;;;;;;;;6236811;23;20016;-75
2022/01/11 02:18:46;;;;;;;3.28;1.75;;;;;;;;;;6210392;23;20013;-75
2022/01/11 02:21:13;;;;;;;3.75;2.13;;;;;;;;;;6236438;23;20016;-76
2022/01/11 02:23:39;;;;;;;4.13;2.42;;;;;;;;;;6237691;23;20070;-76
2022/01/11 02:26:06;;;;;;;3.08;1.85;;;;;;;;;;6237656;23;20012;-76
2022/01/11 02:28:33;;;;;;;3.90;2.25;;;;;;;;;;6210543;23;20066;-75
2022/01/11 02:31:00;;;;;;;4.05;2.28;;;;;;;;;;6238121;23;20094;-75
2022/01/11 02:33:34;;;;;;;3.38;1.95;;;;;;;;;;6236284;23;20008;-76
2022/01/11 02:36:01;;;;;;;4.85;2.30;;;;;;;;;;6237997;23;20412;-75
2022/01/11 02:38:28;;;;;;;4.40;2.80;;;;;;;;;;6210977;23;20348;-76
2022/01/11 02:40:54;;;;;;;3.65;2.33;;;;;;;;;;6236826;23;20027;-76
2022/01/11 02:43:23;;;;;;;2.88;1.80;;;;;;;;;;6237640;23;20020;-76
2022/01/11 02:45:50;;;;;;;3.35;2.10;;;;;;;;;;6210769;23;20008;-76
2022/01/11 02:48:16;;;;;;;4.13;2.30;;;;;;;;;;6236833;23;20062;-76
2022/01/11 02:50:45;;;;;;;4.22;2.20;;;;;;;;;;6237943;23;20526;-75
2022/01/11 02:53:11;;;;;;;3.88;2.17;;;;;;;;;;6238147;23;20403;-75
2022/01/11 02:55:39;;;;;;;3.90;2.20;;;;;;;;;;6236960;23;21936;-76
2022/01/11 02:58:07;;;;;;;3.72;2.20;;;;;;;;;;6237427;22;20334;-75
2022/01/11 03:00:33;;;;;;;4.88;2.88;;;;;;;;;;6235786;23;20395;-76
2022/01/11 03:03:13;;;;;;;2.58;1.80;;;;;;;;;;6237399;23;20020;-75
2022/01/11 03:05:46;;;;;;;4.15;2.10;;;;;;;;;;6234947;23;20615;-75
2022/01/11 03:08:13;;;;;;;2.55;1.63;;;;;;;;;;6236795;23;20337;-79
2022/01/11 03:10:39;;;;;;;3.13;1.80;;;;;;;;;;6238068;23;20023;-77
2022/01/11 03:13:06;;;;;;;3.65;2.20;;;;;;;;;;6237524;23;20680;-75
2022/01/11 03:15:34;;;;;;;4.03;2.03;;;;;;;;;;6234928;23;20061;-75
2022/01/11 03:18:00;;;;;;;4.03;2.45;;;;;;;;;;6236498;23;20012;-75
2022/01/11 03:20:27;;;;;;;4.57;2.47;;;;;;;;;;6236634;23;20015;-76
2022/01/11 03:22:53;;;;;;;3.17;2.15;;;;;;;;;;6237574;23;20016;-77
2022/01/11 03:25:20;;;;;;;4.20;2.28;;;;;;;;;;6235701;23;20012;-75
2022/01/11 03:27:46;;;;;;;3.42;1.88;;;;;;;;;;6236870;23;20020;-76
2022/01/11 03:30:13;;;;;;;3.75;2.13;;;;;;;;;;6209611;23;20012;-77
2022/01/11 03:32:39;;;;;;;4.22;2.30;;;;;;;;;;6237717;23;20475;-76
2022/01/11 03:35:07;;;;;;;4.63;2.10;;;;;;;;;;6238667;23;20059;-76
2022/01/11 03:37:34;;;;;;;3.45;1.83;;;;;;;;;;6236264;23;20773;-77
2022/01/11 03:40:01;;;;;;;3.45;2.03;;;;;;;;;;6237235;23;20012;-80
2022/01/11 03:42:27;;;;;;;4.07;2.05;;;;;;;;;;6237046;23;20020;-78
2022/01/11 03:44:54;;;;;;;3.25;2.00;;;;;;;;;;6212799;23;20016;-77
2022/01/11 03:47:21;;;;;;;4.38;2.20;;;;;;;;;;6239390;23;20020;-76
2022/01/11 03:49:47;;;;;;;2.70;1.88;;;;;;;;;;6240240;23;20008;-78
2022/01/11 03:52:14;;;;;;;3.30;2.05;;;;;;;;;;6238728;23;20020;-76
2022/01/11 03:57:22;;;;;;;;;;;;;;;;;;6240144;23;20016;-75
2022/01/11 03:59:48;;;;;;;3.85;2.15;;;;;;;;;;6239953;22;20027;-74
2022/01/11 04:02:14;;;;;;;2.90;1.80;;;;;;;;;;6238377;23;20503;-77
2022/01/11 04:04:41;;;;;;;4.10;2.40;;;;;;;;;;6188587;23;20008;-76
2022/01/11 04:07:08;;;;;;;4.43;2.08;;;;;;;;;;6212293;23;20098;-77
2022/01/11 04:09:34;;;;;;;3.92;2.38;;;;;;;;;;6238420;23;20438;-76
2022/01/11 04:12:01;;;;;;;3.65;2.15;;;;;;;;;;6239609;23;20589;-76
2022/01/11 04:14:27;;;;;;;3.22;1.90;;;;;;;;;;6211735;23;20341;-75
2022/01/11 04:16:54;;;;;;;3.38;2.33;;;;;;;;;;6212887;23;20012;-77
2022/01/11 04:19:22;;;;;;;4.15;2.33;;;;;;;;;;6211954;23;20019;-75
2022/01/11 04:21:49;;;;;;;4.07;2.17;;;;;;;;;;6238360;23;20016;-75
2022/01/11 04:24:15;;;;;;;3.10;1.95;;;;;;;;;;6238449;23;20062;-76
2022/01/11 04:26:42;;;;;;;3.80;2.50;;;;;;;;;;6239194;23;20441;-77
2022/01/11 04:29:08;;;;;;;3.92;2.00;;;;;;;;;;6238484;23;20012;-75
2022/01/11 04:31:35;;;;;;;3.38;2.08;;;;;;;;;;6236659;23;20019;-75
2022/01/11 04:34:01;;;;;;;3.53;2.10;;;;;;;;;;6239014;23;20016;-75
2022/01/11 04:36:28;;;;;;;2.45;1.75;;;;;;;;;;6211878;23;20341;-76
2022/01/11 04:38:54;;;;;;;3.65;2.10;;;;;;;;;;6238266;23;20395;-75
2022/01/11 04:41:20;;;;;;;2.90;1.80;;;;;;;;;;6210304;23;20502;-77
2022/01/11 04:43:47;;;;;;;3.33;2.00;;;;;;;;;;6238115;23;20012;-74
2022/01/11 04:46:18;;;;;;;3.83;2.42;;;;;;;;;;6236983;23;20016;-77
2022/01/11 04:48:45;;;;;;;4.00;2.15;;;;;;;;;;6237066;23;20511;-75
2022/01/11 04:51:12;;;;;;;3.85;1.90;;;;;;;;;;6237146;23;20054;-76
2022/01/11 04:53:39;;;;;;;4.28;2.22;;;;;;;;;;6235125;23;20019;-77
2022/01/11 04:56:05;;;;;;;4.30;2.40;;;;;;;;;;6236298;23;20528;-77
2022/01/11 04:58:32;;;;;;;4.80;2.13;;;;;;;;;;6235196;22;20021;-75
2022/01/11 05:00:58;;;;;;;3.80;2.45;;;;;;;;;;6209108;23;20015;-75
2022/01/11 05:03:25;;;;;;;3.67;2.10;;;;;;;;;;6217786;23;20353;-76
2022/01/11 05:05:52;;;;;;;3.38;2.30;;;;;;;;;;6209753;23;20008;-77
2022/01/11 05:08:18;;;;;;;3.75;2.35;;;;;;;;;;6234622;23;20028;-79
2022/01/11 05:10:44;;;;;;;4.55;2.40;;;;;;;;;;6208523;23;20004;-78
2022/01/11 05:13:12;;;;;;;3.85;2.20;;;;;;;;;;6235895;23;20463;-79
2022/01/11 05:15:38;;;;;;;3.88;2.15;;;;;;;;;;6234460;23;20332;-79
2022/01/11 05:18:08;;;;;;;3.38;1.92;;;;;;;;;;6238212;23;20460;-78
2022/01/11 05:20:35;;;;;;;4.07;2.10;;;;;;;;;;6235505;23;20013;-77
2022/01/11 05:23:02;;;;;;;3.95;2.22;;;;;;;;;;6237016;23;20090;-80
2022/01/11 05:25:28;;;;;;;3.85;2.42;;;;;;;;;;6235564;23;20340;-77
2022/01/11 05:27:55;;;;;;;4.78;2.30;;;;;;;;;;6236513;23;20032;-76
2022/01/11 05:30:22;;;;;;;3.83;2.20;;;;;;;;;;6209309;23;20020;-75
2022/01/11 05:32:48;;;;;;;4.53;2.22;;;;;;;;;;6237474;23;20444;-77
2022/01/11 05:35:15;;;;;;;4.30;2.42;;;;;;;;;;6209175;23;20020;-78
2022/01/11 05:37:42;;;;;;;4.57;2.53;;;;;;;;;;6236299;23;20027;-77
2022/01/11 05:40:09;;;;;;;5.50;2.25;;;;;;;;;;6236586;23;20012;-76
2022/01/11 05:42:36;;;;;;;4.30;2.72;;;;;;;;;;6234276;23;20019;-78
2022/01/11 05:45:03;;;;;;;4.68;2.35;;;;;;;;;;6234924;23;20024;-77
2022/01/11 05:47:29;;;;;;;3.83;2.33;;;;;;;;;;6234123;23;20051;-78
2022/01/11 05:49:56;;;;;;;3.95;2.35;;;;;;;;;;6181025;23;1294332;-78
2022/01/11 05:52:22;;;;;;;4.93;2.80;;;;;;;;;;6234629;23;20403;-77
2022/01/11 05:54:48;;;;;;;3.85;2.55;;;;;;;;;;6236246;23;20020;-75
2022/01/11 05:57:15;;;;;;;4.28;2.35;;;;;;;;;;6236501;22;20077;-77
2022/01/11 05:59:41;;;;;;;4.35;2.42;;;;;;;;;;6236790;23;20015;-78
2022/01/11 06:02:08;;;;;;;4.40;2.60;;;;;;;;;;6235937;23;20008;-77
2022/01/11 06:04:34;;;;;;;4.35;2.10;;;;;;;;;;6235625;23;20090;-78
2022/01/11 06:07:00;;;;;;;4.20;2.40;;;;;;;;;;6235761;23;20020;-78
2022/01/11 06:09:28;;;;;;;3.97;2.33;;;;;;;;;;6237240;23;20024;-78
2022/01/11 06:11:55;;;;;;;4.30;2.35;;;;;;;;;;6237984;23;20452;-78
2022/01/11 06:14:21;;;;;;;4.00;2.30;;;;;;;;;;6210245;23;20058;-78
2022/01/11 06:16:48;;;;;;;4.15;2.45;;;;;;;;;;6238644;23;20464;-77
2022/01/11 06:19:14;;;;;;;4.65;2.70;;;;;;;;;;6236492;23;20016;-78
2022/01/11 06:21:41;;;;;;;3.95;2.60;;;;;;;;;;6237116;23;20063;-78
2022/01/11 06:24:07;;;;;;;4.22;2.47;;;;;;;;;;6211230;23;20012;-78
2022/01/11 06:26:34;;;;;;;5.22;2.70;;;;;;;;;;6237530;23;20012;-77
2022/01/11 06:29:02;;;;;;;4.95;2.58;;;;;;;;;;6238119;23;20074;-78
2022/01/11 06:31:30;;;;;;;6.05;2.80;;;;;;;;;;6237819;23;20008;-78
2022/01/11 06:33:56;;;;;;;4.32;2.45;;;;;;;;;;6239788;23;20449;-77
2022/01/11 06:36:23;;;;;;;4.32;2.53;;;;;;;;;;6239450;23;20012;-78
2022/01/11 06:38:49;;;;;;;3.92;2.38;;;;;;;;;;6239231;23;20016;-78
2022/01/11 06:41:16;;;;;;;6.53;2.70;;;;;;;;;;6237456;23;20016;-77
2022/01/11 06:43:42;;;;;;;5.07;2.72;;;;;;;;;;6238210;23;20012;-77
2022/01/11 06:46:09;;;;;;;5.85;2.70;;;;;;;;;;6238433;23;20341;-78
2022/01/11 06:48:35;;;;;;;4.45;2.75;;;;;;;;;;6237329;23;20027;-77
2022/01/11 06:51:02;;;;;;;4.30;2.67;;;;;;;;;;6238197;23;20024;-77
2022/01/11 06:53:31;;;;;;;4.72;2.70;;;;;;;;;;6236924;23;20016;-76
2022/01/11 06:55:57;;;;;;;5.68;2.90;;;;;;;;;;6212472;23;20016;-77
2022/01/11 06:58:24;;;;;;;6.72;3.28;;;;;;;;;;6216154;23;20008;-76
2022/01/11 07:00:50;;;;;;;5.28;2.75;;;;;;;;;;6238939;23;20008;-77
2022/01/11 07:03:17;;;;;;;4.53;2.75;;;;;;;;;;6238035;23;20055;-76
2022/01/11 07:05:43;;;;;;;4.75;2.95;;;;;;;;;;6239311;23;20444;-76
2022/01/11 07:08:10;;;;;;;5.40;2.83;;;;;;;;;;6239250;23;20020;-77
2022/01/11 07:10:37;;;;;;;6.38;2.88;;;;;;;;;;6240210;23;20333;-78
2022/01/11 07:13:04;;;;;;;6.00;2.97;;;;;;;;;;6242545;23;20043;-75
2022/01/11 07:15:31;;;;;;;5.70;2.85;;;;;;;;;;6243189;23;20012;-78
2022/01/11 07:17:57;;;;;;;5.05;3.10;;;;;;;;;;6206627;23;20012;-77
2022/01/11 07:20:24;;;;;;;5.22;2.90;;;;;;;;;;6213747;23;20074;-76
2022/01/11 07:22:50;;;;;;;5.95;3.00;;;;;;;;;;6239406;23;20396;-77
2022/01/11 07:25:17;;;;;;;5.13;3.03;;;;;;;;;;6237819;23;20433;-77
2022/01/11 07:27:43;;;;;;;6.10;3.05;;;;;;;;;;6239170;23;20016;-76
2022/01/11 07:30:10;;;;;;;5.30;2.90;;;;;;;;;;6239727;23;20433;-76
2022/01/11 07:32:37;;;;;;;6.43;3.45;;;;;;;;;;6238593;23;20580;-76
2022/01/11 07:35:04;;;;;;;5.35;3.45;;;;;;;;;;6239202;23;20027;-76
2022/01/11 07:37:31;;;;;;;4.18;2.70;;;;;;;;;;6237925;23;20425;-77
2022/01/11 07:39:58;;;;;;;6.15;3.28;;;;;;;;;;6225785;23;20020;-76
2022/01/11 07:42:24;;;;;;;4.60;2.85;;;;;;;;;;6237387;23;20020;-76
2022/01/11 07:44:53;;;;;;;6.50;3.72;;;;;;;;;;6237963;23;20012;-76
2022/01/11 07:47:19;;;;;;;7.13;4.57;;;;;;;;;;6236321;23;20043;-77
2022/01/11 07:49:47;;;;;;;7.13;4.25;;;;;;;;;;6239109;23;20039;-76
2022/01/11 07:52:13;;;;;;;8.05;4.38;;;;;;;;;;6238794;23;20024;-76
2022/01/11 07:54:40;;;;;;;12.32;7.13;;;;;;;;;;6236485;23;22270;-76
2022/01/11 07:57:07;;;;;;;12.18;6.00;;;;;;;;;;6237824;22;20463;-77
2022/01/11 07:59:33;;;;;;;11.57;6.82;;;;;;;;;;6238033;23;20024;-77
2022/01/11 08:02:00;;;;;;;16.52;9.30;;;;;;;;;;6235976;23;20016;-78
2022/01/11 08:04:31;;;;;;;11.73;7.05;;;;;;;;;;6237725;23;20035;-77
2022/01/11 08:06:58;;;;;;;18.67;10.75;;;;;;;;;;6237261;23;20019;-76
2022/01/11 08:09:24;;;;;;;13.10;7.75;;;;;;;;;;6235380;23;20635;-77
2022/01/11 08:11:51;;;;;;;21.60;12.43;;;;;;;;;;6210583;23;20012;-77
2022/01/11 08:14:17;;;;;;;20.25;11.48;;;;;;;;;;6236605;23;20020;-77
2022/01/11 08:16:44;;;;;;;20.42;11.38;;;;;;;;;;6211589;23;20012;-77
2022/01/11 08:19:10;;;;;;;20.83;12.85;;;;;;;;;;6237850;23;20008;-77
2022/01/11 08:21:37;;;;;;;26.65;15.90;;;;;;;;;;6236405;23;20004;-75
2022/01/11 08:24:03;;;;;;;27.05;14.27;;;;;;;;;;6238293;23;20020;-76
2022/01/11 08:26:30;;;;;;;26.35;13.65;;;;;;;;;;6210102;23;20020;-77
2022/01/11 08:28:56;;;;;;;31.13;16.83;;;;;;;;;;6213227;23;20024;-78
2022/01/11 08:31:22;;;;;;;18.23;10.52;;;;;;;;;;6211536;23;20021;-77
2022/01/11 08:33:49;;;;;;;24.83;14.73;;;;;;;;;;6237944;23;20016;-76
2022/01/11 08:36:15;;;;;;;27.70;15.40;;;;;;;;;;6210473;23;20444;-77
2022/01/11 08:38:42;;;;;;;21.05;12.38;;;;;;;;;;6211822;23;20011;-75
2022/01/11 08:41:09;;;;;;;28.98;15.30;;;;;;;;;;6238301;23;20479;-77
2022/01/11 08:43:35;;;;;;;30.33;18.70;;;;;;;;;;6211668;23;20483;-76
2022/01/11 08:46:03;;;;;;;32.60;18.48;;;;;;;;;;6239979;23;20020;-77
2022/01/11 08:48:30;;;;;;;38.63;23.13;;;;;;;;;;6238031;23;20027;-76
2022/01/11 08:50:56;;;;;;;36.65;21.50;;;;;;;;;;6238550;23;20667;-78
2022/01/11 08:53:22;;;;;;;38.35;23.48;;;;;;;;;;6236185;23;20027;-77
2022/01/11 08:55:50;;;;;;;22.27;13.52;;;;;;;;;;6236164;23;20016;-78
2022/01/11 08:58:17;;;;;;;32.13;19.35;;;;;;;;;;6236530;22;20023;-77
2022/01/11 09:00:44;;;;;;;31.60;19.48;;;;;;;;;;6237645;23;20016;-79
2022/01/11 09:03:10;;;;;;;39.38;22.10;;;;;;;;;;6212527;23;20399;-76
2022/01/11 09:05:37;;;;;;;25.98;16.83;;;;;;;;;;6237206;23;20012;-75
2022/01/11 09:08:03;;;;;;;48.95;27.20;;;;;;;;;;6239194;23;20024;-77
2022/01/11 09:10:29;;;;;;;35.03;21.52;;;;;;;;;;6237387;23;20035;-76
2022/01/11 09:12:56;;;;;;;37.70;21.77;;;;;;;;;;6240349;23;20012;-78
2022/01/11 09:15:22;;;;;;;37.65;22.05;;;;;;;;;;6238808;23;20012;-75
2022/01/11 09:17:50;;;;;;;39.00;23.40;;;;;;;;;;6212382;23;20066;-76
2022/01/11 09:20:17;;;;;;;57.53;35.33;;;;;;;;;;6238819;23;20016;-78
2022/01/11 09:22:46;;;;;;;30.67;18.50;;;;;;;;;;6239840;23;20027;-76
2022/01/11 09:25:14;;;;;;;48.03;28.02;;;;;;;;;;6239439;23;20020;-76
2022/01/11 09:27:41;;;;;;;48.10;28.33;;;;;;;;;;6210637;23;20085;-77
2022/01/11 09:30:09;;;;;;;49.72;28.17;;;;;;;;;;6240204;23;20012;-77
2022/01/11 09:32:36;;;;;;;50.10;30.65;;;;;;;;;;6238041;23;20447;-77
2022/01/11 09:35:04;;;;;;;51.72;32.08;;;;;;;;;;6239071;23;20013;-77
2022/01/11 09:37:30;;;;;;;50.67;27.13;;;;;;;;;;6238826;23;20012;-77
2022/01/11 09:39:57;;;;;;;48.70;27.75;;;;;;;;;;6237943;23;20016;-77
2022/01/11 09:42:24;;;;;;;60.92;36.53;;;;;;;;;;6237865;23;20027;-76
2022/01/11 09:44:51;;;;;;;40.38;25.23;;;;;;;;;;6239166;23;20019;-78
2022/01/11 09:47:17;;;;;;;42.35;26.13;;;;;;;;;;6238227;23;20012;-76
2022/01/11 09:49:44;;;;;;;68.93;37.33;;;;;;;;;;6238962;23;20016;-76
2022/01/11 09:52:11;;;;;;;44.10;25.58;;;;;;;;;;6239678;22;20082;-76
2022/01/11 09:54:39;;;;;;;64.90;38.67;;;;;;;;;;6210978;23;20008;-76
2022/01/11 09:57:06;;;;;;;61.28;33.70;;;;;;;;;;6239092;22;20012;-75
2022/01/11 09:59:32;;;;;;;54.00;32.78;;;;;;;;;;6239374;23;20016;-77
2022/01/11 10:01:59;;;;;;;50.25;30.05;;;;;;;;;;6240551;23;20016;-76
2022/01/11 10:04:31;;;;;;;57.70;31.23;;;;;;;;;;6239000;23;20005;-78
2022/01/11 10:07:08;;;;;;;48.88;29.15;;;;;;;;;;6237633;23;20019;-76
2022/01/11 10:09:48;;;;;;;45.88;26.67;;;;;;;;;;6211007;23;20077;-77
2022/01/11 10:12:15;;;;;;;65.88;39.42;;;;;;;;;;6237481;23;20016;-80
2022/01/11 10:15:00;;;;;;;55.92;30.42;;;;;;;;;;6238601;23;20015;-78
2022/01/11 10:17:27;;;;;;;76.03;40.85;;;;;;;;;;6237904;23;20008;-77
2022/01/11 10:20:06;;;;;;;75.80;44.78;;;;;;;;;;6237763;23;20031;-77
2022/01/11 10:22:33;;;;;;;72.03;39.60;;;;;;;;;;6237741;23;20004;-78
2022/01/11 10:25:00;;;;;;;79.47;44.60;;;;;;;;;;6238012;23;20008;-78
2022/01/11 10:27:28;;;;;;;70.30;39.60;;;;;;;;;;6236091;23;20488;-77
2022/01/11 10:30:05;;;;;;;51.92;29.15;;;;;;;;;;6237011;23;20020;-76
2022/01/11 10:32:35;;;;;;;70.43;40.90;;;;;;;;;;6237201;23;20012;-77
2022/01/11 10:35:23;;;;;;;68.03;38.72;;;;;;;;;;6238699;23;20012;-77
2022/01/11 10:37:51;;;;;;;69.95;40.50;;;;;;;;;;6236974;23;20082;-78
2022/01/11 10:40:21;;;;;;;40.97;23.90;;;;;;;;;;6237190;23;20085;-76
2022/01/11 10:42:49;;;;;;;62.00;35.58;;;;;;;;;;6237952;23;20047;-76
2022/01/11 10:45:20;;;;;;;51.00;30.88;;;;;;;;;;6236703;23;20013;-76
2022/01/11 10:47:48;;;;;;;72.32;42.03;;;;;;;;;;6237420;23;20020;-76
2022/01/11 10:50:18;;;;;;;62.50;34.17;;;;;;;;;;6238609;23;20028;-75
2022/01/11 10:52:44;;;;;;;61.83;37.42;;;;;;;;;;6211042;23;20054;-76
2022/01/11 10:55:15;;;;;;;83.70;46.97;;;;;;;;;;6238727;23;20317;-76
2022/01/11 10:57:43;;;;;;;81.88;48.17;;;;;;;;;;6236546;22;20579;-77
2022/01/11 11:00:17;;;;;;;60.67;34.80;;;;;;;;;;6237345;23;20653;-76
2022/01/11 11:02:47;;;;;;;85.60;49.05;;;;;;;;;;6235664;23;22482;-77
2022/01/11 11:05:15;;;;;;;51.20;29.42;;;;;;;;;;6236690;23;20024;-74
2022/01/11 11:07:42;;;;;;;63.63;37.63;;;;;;;;;;6235098;23;21041;-76
2022/01/11 11:10:12;;;;;;;41.38;24.80;;;;;;;;;;6237825;23;20020;-76
2022/01/11 11:12:39;;;;;;;40.60;24.83;;;;;;;;;;6236737;23;20012;-76
2022/01/11 11:15:06;;;;;;;34.72;22.88;;;;;;;;;;6210849;23;20437;-77
2022/01/11 11:17:34;;;;;;;36.13;21.92;;;;;;;;;;6209089;23;20348;-77
2022/01/11 11:20:05;;;;;;;57.65;32.92;;;;;;;;;;6237545;23;20012;-75
2022/01/11 11:22:32;;;;;;;70.32;40.47;;;;;;;;;;6236043;23;20369;-78
2022/01/11 11:24:59;;;;;;;60.40;36.05;;;;;;;;;;6237680;23;20037;-76
2022/01/11 11:27:25;;;;;;;60.25;36.67;;;;;;;;;;6236820;23;20078;-76
2022/01/11 11:29:52;;;;;;;73.30;39.58;;;;;;;;;;6237195;23;20667;-77
2022/01/11 11:32:20;;;;;;;63.60;37.25;;;;;;;;;;6235139;23;20016;-78
2022/01/11 11:34:49;;;;;;;54.88;33.75;;;;;;;;;;6237482;23;20016;-77
2022/01/11 11:37:28;;;;;;;69.25;39.17;;;;;;;;;;6236547;23;20078;-77
2022/01/11 11:39:56;;;;;;;64.45;37.78;;;;;;;;;;6236844;23;20028;-75
2022/01/11 11:42:23;;;;;;;39.72;22.15;;;;;;;;;;6236207;23;20016;-77
2022/01/11 11:44:50;;;;;;;71.90;42.30;;;;;;;;;;6237071;23;20020;-78
2022/01/11 11:47:27;;;;;;;57.80;33.65;;;;;;;;;;6236059;23;20012;-78
2022/01/11 11:49:55;;;;;;;62.75;36.38;;;;;;;;;;6236574;23;20070;-76
2022/01/11 11:52:34;;;;;;;66.47;39.25;;;;;;;;;;6234929;23;20098;-77
2022/01/11 11:55:02;;;;;;;74.85;44.30;;;;;;;;;;6210318;23;20020;-76
2022/01/11 11:57:33;;;;;;;70.40;42.85;;;;;;;;;;6235970;22;20035;-78
2022/01/11 12:00:01;;;;;;;50.60;31.57;;;;;;;;;;6237215;23;20027;-76
2022/01/11 12:02:31;;;;;;;69.82;42.75;;;;;;;;;;6235925;23;20012;-75
2022/01/11 12:04:57;;;;;;;59.10;34.20;;;;;;;;;;6238904;23;20524;-76
2022/01/11 12:07:33;;;;;;;35.50;23.77;;;;;;;;;;6236801;23;20522;-78
2022/01/11 12:10:00;;;;;;;67.53;39.53;;;;;;;;;;6238959;23;20020;-76
2022/01/11 12:12:40;;;;;;;75.70;41.47;;;;;;;;;;6237818;23;20062;-76
2022/01/11 12:15:39;;;;;;;81.32;45.35;;;;;;;;;;6240258;23;20004;-74
2022/01/11 12:18:05;;;;;;;58.20;35.78;;;;;;;;;;6130542;23;20012;-76
2022/01/11 12:20:51;;;;;;;75.47;44.28;;;;;;;;;;6212868;23;20432;-76
2022/01/11 12:23:38;;;;;;;91.97;52.60;;;;;;;;;;6238612;23;20035;-78
2022/01/11 12:26:13;;;;;;;95.72;56.65;;;;;;;;;;6219377;23;20020;-77
2022/01/11 12:28:40;;;;;;;75.63;43.35;;;;;;;;;;6237385;23;21554;-77
2022/01/11 12:31:26;;;;;;;44.78;26.90;;;;;;;;;;6239194;23;20391;-76
2022/01/11 12:33:53;;;;;;;85.72;47.30;;;;;;;;;;6236264;23;21155;-77
2022/01/11 12:36:19;;;;;;;76.82;47.60;;;;;;;;;;6239414;23;20014;-76
2022/01/11 12:39:03;;;;;;;55.40;34.67;;;;;;;;;;6239694;23;20019;-76
2022/01/11 12:41:31;;;;;;;61.83;38.58;;;;;;;;;;6239060;23;20020;-76
2022/01/11 12:44:22;;;;;;;86.07;48.92;;;;;;;;;;6212896;23;20023;-76
2022/01/11 12:46:53;;;;;;;97.93;55.47;;;;;;;;;;6236596;23;21269;-76
2022/01/11 12:49:20;;;;;;;64.40;38.58;;;;;;;;;;6236698;23;20472;-76
2022/01/11 12:51:55;;;;;;;90.07;51.58;;;;;;;;;;6238340;23;20043;-75
2022/01/11 12:54:23;;;;;;;83.57;49.30;;;;;;;;;;6236909;23;20004;-77
2022/01/11 12:56:54;;;;;;;71.10;40.53;;;;;;;;;;6238773;22;20020;-77
2022/01/11 12:59:21;;;;;;;69.43;41.05;;;;;;;;;;6210457;23;20008;-77
2022/01/11 13:01:57;;;;;;;81.93;47.50;;;;;;;;;;6238093;23;20004;-76
2022/01/11 13:04:38;;;;;;;68.20;42.50;;;;;;;;;;6238224;23;20023;-76
2022/01/11 13:07:15;;;;;;;59.20;36.17;;;;;;;;;;6212521;23;20464;-77
2022/01/11 13:09:44;;;;;;;83.95;45.67;;;;;;;;;;6235873;23;20782;-79
2022/01/11 13:12:11;;;;;;;96.32;56.53;;;;;;;;;;6213849;23;20016;-76
2022/01/11 13:14:41;;;;;;;90.38;53.20;;;;;;;;;;6237695;23;20058;-76
2022/01/11 13:17:08;;;;;;;93.50;52.88;;;;;;;;;;6237337;23;20019;-77
2022/01/11 13:19:41;;;;;;;59.42;34.08;;;;;;;;;;6238227;23;20023;-76
2022/01/11 13:22:12;;;;;;;77.97;47.97;;;;;;;;;;6237733;23;20016;-76
2022/01/11 13:24:48;;;;;;;84.05;45.67;;;;;;;;;;6237787;23;20020;-78
2022/01/11 13:27:14;;;;;;;89.70;50.97;;;;;;;;;;6213860;23;20020;-78
2022/01/11 13:29:41;;;;;;;53.28;31.88;;;;;;;;;;6238335;23;20472;-78
2022/01/11 13:32:08;;;;;;;75.45;41.92;;;;;;;;;;6213115;23;20047;-77
2022/01/11 13:34:35;;;;;;;71.93;40.58;;;;;;;;;;6219968;23;20016;-77
2022/01/11 13:37:02;;;;;;;62.70;36.17;;;;;;;;;;6233185;23;20016;-77
2022/01/11 13:39:33;;;;;;;73.25;44.25;;;;;;;;;;6237012;23;20008;-76
2022/01/11 13:42:01;;;;;;;73.75;40.78;;;;;;;;;;6238526;23;20031;-76
2022/01/11 13:44:30;;;;;;;77.63;45.15;;;;;;;;;;6236676;23;20463;-77
2022/01/11 13:47:04;;;;;;;83.53;47.90;;;;;;;;;;6236977;23;20008;-78
2022/01/11 13:49:32;;;;;;;98.22;56.30;;;;;;;;;;6236492;23;20102;-78
2022/01/11 13:51:59;;;;;;;87.88;50.33;;;;;;;;;;6237581;23;20020;-77
2022/01/11 13:54:39;;;;;;;64.13;38.42;;;;;;;;;;6237958;23;20018;-77
2022/01/11 13:57:13;;;;;;;66.80;39.03;;;;;;;;;;6237463;22;20082;-76
2022/01/11 13:59:39;;;;;;;86.90;51.78;;;;;;;;;;6238205;23;20008;-75
2022/01/11 14:02:06;;;;;;;82.68;46.78;;;;;;;;;;6237195;23;20016;-78
2022/01/11 14:04:52;;;;;;;96.95;57.17;;;;;;;;;;6237949;23;20432;-77
2022/01/11 14:07:24;;;;;;;71.85;42.42;;;;;;;;;;6237682;23;20109;-79
2022/01/11 14:10:03;;;;;;;79.60;44.90;;;;;;;;;;6238887;23;20070;-77
2022/01/11 14:12:30;;;;;;;73.10;42.13;;;;;;;;;;6211330;23;20023;-77
2022/01/11 14:14:58;;;;;;;78.25;45.10;;;;;;;;;;6211846;23;20078;-79
2022/01/11 14:17:26;;;;;;;87.75;50.80;;;;;;;;;;6236981;23;20012;-77
2022/01/11 14:20:00;;;;;;;73.07;43.17;;;;;;;;;;6236881;23;20004;-77
2022/01/11 14:22:40;;;;;;;96.07;53.60;;;;;;;;;;6236004;23;20012;-78
2022/01/11 14:25:11;;;;;;;78.38;46.50;;;;;;;;;;6236066;23;20092;-77
2022/01/11 14:27:38;;;;;;;76.97;44.30;;;;;;;;;;6235393;23;20008;-76
2022/01/11 14:30:08;;;;;;;86.50;49.58;;;;;;;;;;6236474;23;20031;-76
2022/01/11 14:32:44;;;;;;;101.25;58.45;;;;;;;;;;6235044;23;20019;-76
2022/01/11 14:35:11;;;;;;;74.50;41.70;;;;;;;;;;6236861;23;20694;-77
2022/01/11 14:37:37;;;;;;;93.97;52.72;;;;;;;;;;6235225;23;20083;-77
2022/01/11 14:40:15;;;;;;;70.28;39.92;;;;;;;;;;6235680;23;20020;-78
2022/01/11 14:42:42;;;;;;;81.35;46.67;;;;;;;;;;6207721;23;20012;-76
2022/01/11 14:45:11;;;;;;;93.05;53.63;;;;;;;;;;6238632;23;20008;-77